• Join FlightAware (Why Join?)
  • Login
  • US Flag 
12:09PM EDT


 

Airport Tracker/Info


-or-


 

Live Flight TrackerFlight Track Log ✈ N724HS ✈ 13-Jun-2014 ✈ MYCH - KFLL

Flight Track Log - Related Links

Times and Time Zones

All times are in EDT time to prevent confusion due to time zone crossing. See the N724HS flight status page for this flight to view local times or setup timezone preferences in your user account.

Time Position Orientation Groundspeed Altitude Reporting Facility
EDT Latitude Longitude Course Direction KTS MPH feet Rate Location/Type
04:30PM 24.2231 -75.7411 296° West 193 222 7,100  Level Miami Center
04:31PM 24.2464 -75.7944 296° West 193 222 8,700 1,560 Climbing Miami Center
04:32PM 24.2694 -75.8481 295° West 193 222 10,400 1,380 Climbing Miami Center
04:33PM 24.2925 -75.9011 295° West 193 222 11,600 1,200 Climbing Miami Center
04:34PM 24.3169 -75.9561 296° West 193 222 13,000 1,320 Climbing Miami Center
04:35PM 24.3456 -76.0222 295° West 195 224 14,400 1,200 Climbing Miami Center
04:36PM 24.3697 -76.0789 295° West 198 228 15,500 780 Climbing Miami Center
04:37PM 24.3942 -76.1364 295° West 201 231 16,000 240 Climbing Miami Center
04:38PM 24.4231 -76.1994 297° West 215 247 16,000  Level Miami Center
04:39PM 24.4531 -76.2683 296° West 233 268 16,000  Level Miami Center
04:40PM 24.4822 -76.3381 295° West 243 280 16,000  Level Miami Center
04:41PM 24.5172 -76.4206 295° West 245 282 16,000  Level Miami Center
04:42PM 24.5464 -76.4878 296° West 245 282 16,000  Level Miami Center
04:43PM 24.5756 -76.5550 296° West 246 283 16,000  Level Miami Center
04:45PM 24.6044 -76.6225 295° West 245 282 16,000  Level Miami Center
04:46PM 24.6339 -76.6911 295° West 245 282 16,000  Level Miami Center
04:47PM 24.6631 -76.7597 295° West 246 283 16,000  Level Miami Center
04:48PM 24.6922 -76.8297 295° West 246 283 16,000  Level Miami Center
04:49PM 24.7283 -76.9117 296° West 246 283 16,000  Level Miami Center
04:50PM 24.7564 -76.9817 294° West 246 283 16,000  Level Miami Center
04:51PM 24.7869 -77.0511 296° West 248 285 16,000  Level Miami Center
04:52PM 24.8164 -77.1208 295° West 248 285 16,000  Level Miami Center
04:53PM 24.8456 -77.1911 295° West 249 287 16,000  Level Miami Center
04:54PM 24.8756 -77.2617 295° West 249 287 16,000 -60 Level Miami Center
04:55PM 24.9058 -77.3328 295° West 251 289 15,900 -780 Descending Miami Center
04:56PM 24.9433 -77.4192 296° West 254 292 14,500 -960 Descending Miami Center
04:57PM 24.9756 -77.4964 295° West 267 307 14,000 -300 Descending Miami Center
04:58PM 25.0078 -77.5731 295° West 267 307 14,000  Level Miami Center
04:59PM 25.0292 -77.6344 291° West 244 281 14,000  Level Miami Center
05:00PM 25.0583 -77.6975 297° West 236 272 14,000  Level Miami Center
05:01PM 25.0850 -77.7639 294° West 236 272 14,000  Level Miami Center
05:02PM 25.1178 -77.8442 294° West 236 272 14,000  Level Miami Center
05:03PM 25.1411 -77.8981 296° West 238 274 14,000  Level Miami Center
05:04PM 25.1772 -77.9811 296° West 244 281 14,000  Level Miami Center
05:05PM 25.2050 -78.0528 293° West 248 285 14,000  Level Miami Center
05:06PM 25.2369 -78.1303 295° West 252 290 14,000  Level Miami Center
05:07PM 25.2706 -78.1983 299° West 252 290 14,000  Level Miami Center
05:09PM 25.3297 -78.3439 293° West 252 290 14,000  Level Miami Center
05:11PM 25.3628 -78.4214 295° West 286 329 14,000  Level Miami Center
05:12PM 25.3908 -78.4892 295° West 249 287 14,000  Level Miami Center
05:13PM 25.4181 -78.5589 293° West 249 287 14,000  Level Miami Center
05:14PM 25.4522 -78.6422 294° West 249 287 14,000  Level Miami Center
05:15PM 25.4794 -78.7108 294° West 249 287 14,000  Level Miami Center
05:16PM 25.5089 -78.7803 295° West 248 285 14,000  Level Miami Center
05:17PM 25.5375 -78.8500 294° West 248 285 14,000  Level Miami Center
05:18PM 25.5656 -78.9194 294° West 248 285 14,000 -540 Level Miami Center
05:19PM 25.5947 -78.9911 294° West 250 288 13,000 -960 Descending Miami Center
05:20PM 25.6256 -79.0647 295° West 257 296 12,100 -1,020 Descending Miami Center
05:21PM 25.6564 -79.1403 294° West 237 273 10,900 -1,080 Descending Miami Center
05:22PM 25.6814 -79.2039 294° West 227 261 10,000 -480 Descending Miami Center
05:23PM 25.7028 -79.2608 293° West 212 244 10,000  Level Miami Center
05:24PM 25.7228 -79.3128 293° West 188 216 10,000  Level Miami Center
05:25PM 25.7450 -79.3694 294° West 195 224 10,000  Level Miami Center
05:26PM 25.7683 -79.4253 295° West 200 230 10,000  Level Miami Center
05:27PM 25.7947 -79.4906 294° West 197 227 10,000  Level Miami Center
05:28PM 25.8156 -79.5436 294° West 190 219 10,000  Level Miami Center
05:29PM 25.8372 -79.5983 294° West 190 219 10,000  Level Miami Center
05:30PM 25.8597 -79.6536 294° West 194 223 10,000  Level Miami Center
05:31PM 25.8828 -79.7097 295° West 198 228 10,000  Level Miami Center
05:32PM 25.8450 -79.7344 210° Southwest 205 236 10,000 -120 Level Miami Center
05:33PM 25.8194 -79.6764 116° Southeast 211 243 9,800 -660 Descending Miami Center
05:34PM 25.7914 -79.6025 113° Southeast 214 246 8,700 -900 Descending Miami Center
05:35PM 25.8089 -79.5564 67° East 209 241 8,000 -360 Descending Miami Center
05:36PM 25.8408 -79.5989 310° West 191 220 8,000 -360 Level Miami Center
05:37PM 25.8611 -79.6547 292° West 191 220 7,300 -540 Descending Miami Center
05:38PM 25.8483 -79.7017 253° West 190 219 7,000 -180 Descending Miami Center
05:39PM 25.7992 -79.6736 153° Southeast 199 229 7,000  Level Miami Center
05:40PM 25.7519 -79.6436 150° Southeast 197 227 7,000  Level Miami Center
05:41PM 25.6947 -79.6069 150° Southeast 197 227 7,000 -240 Level Miami Center
05:42PM 25.6519 -79.5683 141° Southeast 203 234 6,600 -1,200 Descending Miami Center
05:43PM 25.6897 -79.5386 35° Northeast 207 238 4,600 -1,260 Descending Miami Center
05:45PM 25.7433 -79.5717 331° Northwest 181 208 4,000 -300 Descending Miami Center
05:45PM 25.7833 -79.5914 336° Northwest 190 219 4,000  Level Miami Center
05:46PM 25.8000 -79.6036 327° Northwest 186 214 4,000  Level Miami Center
05:47PM 25.8289 -79.6175 337° Northwest 188 216 4,000  Level Miami Center
05:47PM 25.8467 -79.6300 328° Northwest 182 209 4,000  Level Miami Center
05:48PM 25.8653 -79.6678 299° West 185 213 4,000  Level Miami Center
05:49PM 25.8878 -79.7181 296° West 183 211 4,000  Level Miami Center
05:49PM 25.8947 -79.7353 294° West 184 212 4,000  Level Miami Center
05:50PM 25.9106 -79.7692 297° West 185 213 4,000 -360 Level Miami Center
05:50PM 25.9186 -79.7925 291° West 183 211 3,600 -900 Descending Miami Center
05:51PM 25.9325 -79.8208 299° West 185 213 3,100 -600 Descending Miami Center
05:51PM 25.9406 -79.8453 290° West 183 211 3,000 -120 Descending Miami Center
05:52PM 25.9519 -79.8692 298° West 172 198 3,000  Level Miami Center
05:53PM 25.9725 -79.9169 296° West 170 196 3,000  Level Miami Center
05:54PM 25.9892 -79.9700 289° West 180 207 3,000 -420 Level Miami Center
05:54PM 25.9881 -79.9947 267° West 190 219 2,500 -1,020 Descending Miami Center
05:55PM 25.9903 -80.0383 273° West 186 214 2,000 -300 Descending Miami Center
05:56PM 25.9911 -80.0944 271° West 186 214 2,000  Level Miami Center
05:57PM 25.9922 -80.1503 271° West 185 213 2,000  Level Miami Center
05:58PM 25.9958 -80.2061 274° West 186 214 2,000 -300 Level Miami Center
05:59PM 26.0406 -80.2281 336° Northwest 185 213 1,400 -420 Descending Miami Center
06:00PM 26.0644 -80.2100 34° Northeast 145 167 1,100 -600 Descending Miami Center
06:01PM 26.0764 -80.1800 66° East 111 128 300 -780 Descending Miami Center
06:03PM 26.0667 -80.1500 77° East  Level FlightAware Approximate